createdAt,value
2022-09-03T00:03:48.131Z,1368.79333
2022-09-03T00:18:50.353Z,1535.39783
2022-09-03T00:33:52.601Z,1511.4259
2022-09-03T00:48:55.615Z,1028.39294
2022-09-03T01:03:59.213Z,770.69537
2022-09-03T01:19:01.517Z,539.36694
2022-09-03T01:34:03.721Z,493.82037
2022-09-03T01:49:05.923Z,346.39343
2022-09-03T02:04:08.107Z,196.56927
2022-09-03T02:19:10.331Z,77.90855
2022-09-03T02:34:12.593Z,25.17046
2022-09-03T02:49:14.964Z,3.59578
2022-09-03T03:04:17.119Z,0
2022-09-03T03:19:19.321Z,0
2022-09-03T03:34:21.655Z,0
2022-09-03T03:49:23.823Z,0
2022-09-03T04:04:26.036Z,0
2022-09-03T04:19:28.328Z,0
2022-09-03T04:34:30.568Z,0
2022-09-03T04:49:32.795Z,0
2022-09-03T05:04:35.115Z,0
2022-09-03T05:19:37.446Z,0
2022-09-03T05:34:39.624Z,0
2022-09-03T05:49:41.875Z,0
2022-09-03T06:04:44.294Z,0
2022-09-03T06:19:46.566Z,0
2022-09-03T06:34:48.743Z,0
2022-09-03T06:49:50.936Z,0
2022-09-03T07:04:53.090Z,0
2022-09-03T07:19:56.548Z,0
2022-09-03T07:34:58.760Z,0
2022-09-03T07:50:00.981Z,0
2022-09-03T08:05:03.170Z,0
2022-09-03T08:20:05.529Z,0
2022-09-03T08:35:07.740Z,0
2022-09-03T08:50:10.099Z,0
2022-09-03T09:05:14.326Z,0
2022-09-03T09:20:16.821Z,0
2022-09-03T09:35:19.050Z,0
2022-09-03T09:50:26.036Z,0
2022-09-03T10:05:28.791Z,0
2022-09-03T10:20:31.110Z,0
2022-09-03T10:35:33.360Z,0
2022-09-03T10:50:35.548Z,0
2022-09-03T11:05:37.900Z,0
2022-09-03T11:20:40.093Z,0
2022-09-03T11:35:42.312Z,0
2022-09-03T11:50:44.700Z,0
2022-09-03T12:05:47.566Z,0
2022-09-03T12:20:49.807Z,0
2022-09-03T12:36:00.023Z,0
2022-09-03T12:51:47.949Z,3.59578
2022-09-03T13:06:52.027Z,23.97186
2022-09-03T13:21:54.198Z,70.717
2022-09-03T13:36:56.414Z,161.81007
2022-09-03T13:51:58.662Z,238.52003
2022-09-03T14:07:00.847Z,330.81171
2022-09-03T14:22:03.007Z,666.41779
2022-09-03T14:37:05.260Z,676.00653
2022-09-03T14:52:07.657Z,1212.97632
2022-09-03T15:07:09.869Z,4000.90381
2022-09-03T15:22:12.080Z,1778.71228
2022-09-03T15:37:14.418Z,1251.3313
2022-09-03T15:52:16.612Z,1950.11108
2022-09-03T16:07:18.819Z,2023.22522
2022-09-03T16:22:21.008Z,2543.41455
2022-09-03T16:37:23.220Z,2864.6377
2022-09-03T16:52:37.863Z,1693.61206
2022-09-03T17:07:40.753Z,1856.62073
2022-09-03T17:22:43.013Z,2563.79077
2022-09-03T17:37:45.211Z,3647.31885
2022-09-03T17:52:47.566Z,4342.50293
2022-09-03T18:07:49.925Z,4064.42944
2022-09-03T18:22:52.087Z,4094.39429
2022-09-03T18:37:54.290Z,3824.71069
2022-09-03T18:52:56.570Z,3806.73193
2022-09-03T19:07:59.960Z,3574.20483
2022-09-03T19:23:02.461Z,4102.78418
2022-09-03T19:38:04.695Z,3668.89355
2022-09-03T19:53:07.115Z,3142.71118
2022-09-03T20:08:09.405Z,2520.64136
2022-09-03T20:23:11.638Z,1619.29932
2022-09-03T20:38:13.884Z,1862.61377
2022-09-03T20:53:16.110Z,2258.14941
2022-09-03T21:08:18.322Z,1565.36267
2022-09-03T21:23:20.526Z,1462.28369
2022-09-03T21:38:22.812Z,2014.83508
2022-09-03T21:53:25.091Z,2314.4834
2022-09-03T22:08:27.465Z,1722.3783
2022-09-03T22:23:29.803Z,2165.85791
2022-09-03T22:38:32.006Z,4160.31689
2022-09-03T22:53:34.388Z,1144.65649
2022-09-03T23:08:36.723Z,665.21918
2022-09-03T23:23:39.197Z,539.36694
2022-09-03T23:38:41.535Z,676.00653
2022-09-03T23:53:43.932Z,734.73761
